sensor_id;sensor_type;location;lat;lon;timestamp;temperature;humidity
5009;DHT22;2523;51.058;6.922;2023-12-20T00:02:16;7.70;99.90
5009;DHT22;2523;51.058;6.922;2023-12-20T00:04:41;7.70;99.90
5009;DHT22;2523;51.058;6.922;2023-12-20T00:07:07;7.70;99.90
5009;DHT22;2523;51.058;6.922;2023-12-20T00:09:32;7.80;99.90
5009;DHT22;2523;51.058;6.922;2023-12-20T00:11:58;7.80;99.90
5009;DHT22;2523;51.058;6.922;2023-12-20T00:14:23;7.80;99.90
5009;DHT22;2523;51.058;6.922;2023-12-20T00:16:49;7.70;99.90
5009;DHT22;2523;51.058;6.922;2023-12-20T00:19:14;7.80;99.90
5009;DHT22;2523;51.058;6.922;2023-12-20T00:21:40;7.80;99.90
5009;DHT22;2523;51.058;6.922;2023-12-20T00:24:05;7.80;99.90
5009;DHT22;2523;51.058;6.922;2023-12-20T00:26:31;7.70;99.90
5009;DHT22;2523;51.058;6.922;2023-12-20T00:28:57;7.70;99.90
5009;DHT22;2523;51.058;6.922;2023-12-20T00:31:22;7.60;99.90
5009;DHT22;2523;51.058;6.922;2023-12-20T00:33:48;7.60;99.90
5009;DHT22;2523;51.058;6.922;2023-12-20T00:36:13;7.60;99.90
5009;DHT22;2523;51.058;6.922;2023-12-20T00:38:39;7.60;99.90
5009;DHT22;2523;51.058;6.922;2023-12-20T00:41:04;7.60;99.90
5009;DHT22;2523;51.058;6.922;2023-12-20T00:43:30;7.60;99.90
5009;DHT22;2523;51.058;6.922;2023-12-20T00:45:55;7.60;99.90
5009;DHT22;2523;51.058;6.922;2023-12-20T00:48:21;7.60;99.90
5009;DHT22;2523;51.058;6.922;2023-12-20T00:50:47;7.60;99.90
5009;DHT22;2523;51.058;6.922;2023-12-20T00:53:12;7.60;99.90
5009;DHT22;2523;51.058;6.922;2023-12-20T00:55:38;7.60;99.90
5009;DHT22;2523;51.058;6.922;2023-12-20T00:58:03;7.60;99.90
5009;DHT22;2523;51.058;6.922;2023-12-20T01:00:29;7.60;99.90
5009;DHT22;2523;51.058;6.922;2023-12-20T01:02:54;7.60;99.90
5009;DHT22;2523;51.058;6.922;2023-12-20T01:05:20;7.60;99.90
5009;DHT22;2523;51.058;6.922;2023-12-20T01:07:48;7.60;99.90
5009;DHT22;2523;51.058;6.922;2023-12-20T01:10:14;7.50;99.90
5009;DHT22;2523;51.058;6.922;2023-12-20T01:12:40;7.50;99.90
5009;DHT22;2523;51.058;6.922;2023-12-20T01:15:05;7.40;99.90
5009;DHT22;2523;51.058;6.922;2023-12-20T01:17:31;7.40;99.90
5009;DHT22;2523;51.058;6.922;2023-12-20T01:19:56;7.50;99.90
5009;DHT22;2523;51.058;6.922;2023-12-20T01:22:22;7.50;99.90
5009;DHT22;2523;51.058;6.922;2023-12-20T01:24:48;7.60;99.90
5009;DHT22;2523;51.058;6.922;2023-12-20T01:27:13;7.60;99.90
5009;DHT22;2523;51.058;6.922;2023-12-20T01:29:39;7.60;99.90
5009;DHT22;2523;51.058;6.922;2023-12-20T01:32:05;7.60;99.90
5009;DHT22;2523;51.058;6.922;2023-12-20T01:34:30;7.60;99.90
5009;DHT22;2523;51.058;6.922;2023-12-20T01:36:56;7.50;99.90
5009;DHT22;2523;51.058;6.922;2023-12-20T01:39:21;7.50;99.90
5009;DHT22;2523;51.058;6.922;2023-12-20T01:41:47;7.50;99.90
5009;DHT22;2523;51.058;6.922;2023-12-20T01:44:12;7.50;99.90
5009;DHT22;2523;51.058;6.922;2023-12-20T01:46:38;7.50;99.90
5009;DHT22;2523;51.058;6.922;2023-12-20T01:49:04;7.50;99.90
5009;DHT22;2523;51.058;6.922;2023-12-20T01:51:29;7.50;99.90
5009;DHT22;2523;51.058;6.922;2023-12-20T01:53:59;7.40;99.90
5009;DHT22;2523;51.058;6.922;2023-12-20T01:56:26;7.40;99.90
5009;DHT22;2523;51.058;6.922;2023-12-20T01:58:52;7.40;99.90
5009;DHT22;2523;51.058;6.922;2023-12-20T02:01:18;7.30;99.90
5009;DHT22;2523;51.058;6.922;2023-12-20T02:03:44;7.30;99.90
5009;DHT22;2523;51.058;6.922;2023-12-20T02:06:11;7.30;99.90
5009;DHT22;2523;51.058;6.922;2023-12-20T02:08:36;7.30;99.90
5009;DHT22;2523;51.058;6.922;2023-12-20T02:11:02;7.20;99.90
5009;DHT22;2523;51.058;6.922;2023-12-20T02:13:28;7.20;99.90
5009;DHT22;2523;51.058;6.922;2023-12-20T02:15:54;7.10;99.90
5009;DHT22;2523;51.058;6.922;2023-12-20T02:18:20;7.10;99.90
5009;DHT22;2523;51.058;6.922;2023-12-20T02:20:45;7.00;99.90
5009;DHT22;2523;51.058;6.922;2023-12-20T02:23:11;7.00;99.90
5009;DHT22;2523;51.058;6.922;2023-12-20T02:25:36;7.00;99.90
5009;DHT22;2523;51.058;6.922;2023-12-20T02:28:03;6.90;99.90
5009;DHT22;2523;51.058;6.922;2023-12-20T02:30:29;6.90;99.90
5009;DHT22;2523;51.058;6.922;2023-12-20T02:32:54;6.80;99.90
5009;DHT22;2523;51.058;6.922;2023-12-20T02:35:21;6.70;99.90
5009;DHT22;2523;51.058;6.922;2023-12-20T02:37:46;6.70;99.90
5009;DHT22;2523;51.058;6.922;2023-12-20T02:40:12;6.70;99.90
5009;DHT22;2523;51.058;6.922;2023-12-20T02:42:37;6.70;99.90
5009;DHT22;2523;51.058;6.922;2023-12-20T02:45:03;6.60;99.90
5009;DHT22;2523;51.058;6.922;2023-12-20T02:47:29;6.60;99.90
5009;DHT22;2523;51.058;6.922;2023-12-20T02:49:55;6.60;99.90
5009;DHT22;2523;51.058;6.922;2023-12-20T02:52:22;6.60;99.90
5009;DHT22;2523;51.058;6.922;2023-12-20T02:54:48;6.60;99.90
5009;DHT22;2523;51.058;6.922;2023-12-20T02:57:13;6.60;99.90
5009;DHT22;2523;51.058;6.922;2023-12-20T02:59:39;6.60;99.90
5009;DHT22;2523;51.058;6.922;2023-12-20T03:02:05;6.60;99.90
5009;DHT22;2523;51.058;6.922;2023-12-20T03:04:30;6.60;99.90
5009;DHT22;2523;51.058;6.922;2023-12-20T03:06:56;6.60;99.90
5009;DHT22;2523;51.058;6.922;2023-12-20T03:09:23;6.60;99.90
5009;DHT22;2523;51.058;6.922;2023-12-20T03:11:48;6.60;99.90
5009;DHT22;2523;51.058;6.922;2023-12-20T03:14:14;6.60;99.90
5009;DHT22;2523;51.058;6.922;2023-12-20T03:16:39;6.60;99.90
5009;DHT22;2523;51.058;6.922;2023-12-20T03:19:05;6.60;99.90
5009;DHT22;2523;51.058;6.922;2023-12-20T03:21:30;6.70;99.90
5009;DHT22;2523;51.058;6.922;2023-12-20T03:23:56;6.70;99.90
5009;DHT22;2523;51.058;6.922;2023-12-20T03:26:21;6.70;99.90
5009;DHT22;2523;51.058;6.922;2023-12-20T03:28:48;6.70;99.90
5009;DHT22;2523;51.058;6.922;2023-12-20T03:31:14;6.70;99.90
5009;DHT22;2523;51.058;6.922;2023-12-20T03:33:39;6.70;99.90
5009;DHT22;2523;51.058;6.922;2023-12-20T03:36:05;6.70;99.90
5009;DHT22;2523;51.058;6.922;2023-12-20T03:38:31;6.70;99.90
5009;DHT22;2523;51.058;6.922;2023-12-20T03:40:56;6.70;99.90
5009;DHT22;2523;51.058;6.922;2023-12-20T03:43:22;6.70;99.90
5009;DHT22;2523;51.058;6.922;2023-12-20T03:45:47;6.70;99.90
5009;DHT22;2523;51.058;6.922;2023-12-20T03:48:13;6.70;99.90
5009;DHT22;2523;51.058;6.922;2023-12-20T03:50:38;6.70;99.90
5009;DHT22;2523;51.058;6.922;2023-12-20T03:53:04;6.60;99.90
5009;DHT22;2523;51.058;6.922;2023-12-20T03:55:29;6.60;99.90
5009;DHT22;2523;51.058;6.922;2023-12-20T03:57:55;6.50;99.90
5009;DHT22;2523;51.058;6.922;2023-12-20T04:00:20;6.50;99.90
5009;DHT22;2523;51.058;6.922;2023-12-20T04:02:46;6.50;99.90
5009;DHT22;2523;51.058;6.922;2023-12-20T04:05:11;6.50;99.90
5009;DHT22;2523;51.058;6.922;2023-12-20T04:07:37;6.50;99.90
5009;DHT22;2523;51.058;6.922;2023-12-20T04:10:03;6.50;99.90
5009;DHT22;2523;51.058;6.922;2023-12-20T04:12:29;6.50;99.90
5009;DHT22;2523;51.058;6.922;2023-12-20T04:14:56;6.50;99.90
5009;DHT22;2523;51.058;6.922;2023-12-20T04:17:21;6.50;99.90
5009;DHT22;2523;51.058;6.922;2023-12-20T04:19:48;6.50;99.90
5009;DHT22;2523;51.058;6.922;2023-12-20T04:22:14;6.50;99.90
5009;DHT22;2523;51.058;6.922;2023-12-20T04:24:39;6.60;99.90
5009;DHT22;2523;51.058;6.922;2023-12-20T04:27:07;6.60;99.90
5009;DHT22;2523;51.058;6.922;2023-12-20T04:29:33;6.60;99.90
5009;DHT22;2523;51.058;6.922;2023-12-20T04:31:59;6.60;99.90
5009;DHT22;2523;51.058;6.922;2023-12-20T04:34:24;6.60;99.90
5009;DHT22;2523;51.058;6.922;2023-12-20T04:36:50;6.60;99.90
5009;DHT22;2523;51.058;6.922;2023-12-20T04:39:15;6.60;99.90
5009;DHT22;2523;51.058;6.922;2023-12-20T04:41:41;6.60;99.90
5009;DHT22;2523;51.058;6.922;2023-12-20T04:44:07;6.60;99.90
5009;DHT22;2523;51.058;6.922;2023-12-20T04:46:32;6.60;99.90
5009;DHT22;2523;51.058;6.922;2023-12-20T04:48:58;6.60;99.90
5009;DHT22;2523;51.058;6.922;2023-12-20T04:51:23;6.60;99.90
5009;DHT22;2523;51.058;6.922;2023-12-20T04:53:49;6.60;99.90
5009;DHT22;2523;51.058;6.922;2023-12-20T04:56:14;6.60;99.90
5009;DHT22;2523;51.058;6.922;2023-12-20T04:58:40;6.50;99.90
5009;DHT22;2523;51.058;6.922;2023-12-20T05:01:06;6.50;99.90
5009;DHT22;2523;51.058;6.922;2023-12-20T05:03:32;6.60;99.90
5009;DHT22;2523;51.058;6.922;2023-12-20T05:05:58;6.60;99.90
5009;DHT22;2523;51.058;6.922;2023-12-20T05:08:23;6.60;99.90
5009;DHT22;2523;51.058;6.922;2023-12-20T05:10:50;6.50;99.90
5009;DHT22;2523;51.058;6.922;2023-12-20T05:13:16;6.50;99.90
5009;DHT22;2523;51.058;6.922;2023-12-20T05:15:42;6.40;99.90
5009;DHT22;2523;51.058;6.922;2023-12-20T05:18:07;6.40;99.90
5009;DHT22;2523;51.058;6.922;2023-12-20T05:20:33;6.40;99.90
5009;DHT22;2523;51.058;6.922;2023-12-20T05:22:58;6.30;99.90
5009;DHT22;2523;51.058;6.922;2023-12-20T05:25:24;6.30;99.90
5009;DHT22;2523;51.058;6.922;2023-12-20T05:27:50;6.40;99.90
5009;DHT22;2523;51.058;6.922;2023-12-20T05:30:15;6.40;99.90
5009;DHT22;2523;51.058;6.922;2023-12-20T05:32:41;6.30;99.90
5009;DHT22;2523;51.058;6.922;2023-12-20T05:35:06;6.30;99.90
5009;DHT22;2523;51.058;6.922;2023-12-20T05:37:32;6.30;99.90
5009;DHT22;2523;51.058;6.922;2023-12-20T05:39:58;6.30;99.90
5009;DHT22;2523;51.058;6.922;2023-12-20T05:42:23;6.30;99.90
5009;DHT22;2523;51.058;6.922;2023-12-20T05:44:49;6.20;99.90
5009;DHT22;2523;51.058;6.922;2023-12-20T05:47:14;6.20;99.90
5009;DHT22;2523;51.058;6.922;2023-12-20T05:49:40;6.20;99.90
5009;DHT22;2523;51.058;6.922;2023-12-20T05:52:05;6.20;99.90
5009;DHT22;2523;51.058;6.922;2023-12-20T05:54:31;6.20;99.90
5009;DHT22;2523;51.058;6.922;2023-12-20T05:56:56;6.20;99.90
5009;DHT22;2523;51.058;6.922;2023-12-20T05:59:22;6.20;99.90
5009;DHT22;2523;51.058;6.922;2023-12-20T06:01:47;6.30;99.90
5009;DHT22;2523;51.058;6.922;2023-12-20T06:04:13;6.30;99.90
5009;DHT22;2523;51.058;6.922;2023-12-20T06:06:44;6.30;99.90
5009;DHT22;2523;51.058;6.922;2023-12-20T06:09:10;6.30;99.90
5009;DHT22;2523;51.058;6.922;2023-12-20T06:11:36;6.30;99.90
5009;DHT22;2523;51.058;6.922;2023-12-20T06:14:01;6.30;99.90
5009;DHT22;2523;51.058;6.922;2023-12-20T06:16:27;6.30;99.90
5009;DHT22;2523;51.058;6.922;2023-12-20T06:18:52;6.30;99.90
5009;DHT22;2523;51.058;6.922;2023-12-20T06:21:18;6.30;99.90
5009;DHT22;2523;51.058;6.922;2023-12-20T06:23:44;6.40;99.90
5009;DHT22;2523;51.058;6.922;2023-12-20T06:26:09;6.40;99.90
5009;DHT22;2523;51.058;6.922;2023-12-20T06:28:35;6.40;99.90
5009;DHT22;2523;51.058;6.922;2023-12-20T06:31:01;6.40;99.90
5009;DHT22;2523;51.058;6.922;2023-12-20T06:33:26;6.40;99.90
5009;DHT22;2523;51.058;6.922;2023-12-20T06:35:52;6.50;99.90
5009;DHT22;2523;51.058;6.922;2023-12-20T06:38:18;6.40;99.90
5009;DHT22;2523;51.058;6.922;2023-12-20T06:40:44;6.50;99.90
5009;DHT22;2523;51.058;6.922;2023-12-20T06:43:11;6.50;99.90
5009;DHT22;2523;51.058;6.922;2023-12-20T06:45:37;6.50;99.90
5009;DHT22;2523;51.058;6.922;2023-12-20T06:48:02;6.50;99.90
5009;DHT22;2523;51.058;6.922;2023-12-20T06:50:28;6.50;99.90
5009;DHT22;2523;51.058;6.922;2023-12-20T06:52:54;6.50;99.90
5009;DHT22;2523;51.058;6.922;2023-12-20T06:55:19;6.50;99.90
5009;DHT22;2523;51.058;6.922;2023-12-20T06:57:45;6.60;99.90
5009;DHT22;2523;51.058;6.922;2023-12-20T07:00:11;6.60;99.90
5009;DHT22;2523;51.058;6.922;2023-12-20T07:02:37;6.60;99.90
5009;DHT22;2523;51.058;6.922;2023-12-20T07:05:03;6.60;99.90
5009;DHT22;2523;51.058;6.922;2023-12-20T07:07:29;6.70;99.90
5009;DHT22;2523;51.058;6.922;2023-12-20T07:09:55;6.70;99.90
5009;DHT22;2523;51.058;6.922;2023-12-20T07:12:21;6.70;99.90
5009;DHT22;2523;51.058;6.922;2023-12-20T07:14:46;6.60;99.90
5009;DHT22;2523;51.058;6.922;2023-12-20T07:17:12;6.70;99.90
5009;DHT22;2523;51.058;6.922;2023-12-20T07:19:40;6.70;99.90
5009;DHT22;2523;51.058;6.922;2023-12-20T07:22:06;6.70;99.90
5009;DHT22;2523;51.058;6.922;2023-12-20T07:24:32;6.70;99.90
5009;DHT22;2523;51.058;6.922;2023-12-20T07:26:59;6.60;99.90
5009;DHT22;2523;51.058;6.922;2023-12-20T07:29:25;6.70;99.90
5009;DHT22;2523;51.058;6.922;2023-12-20T07:31:51;6.70;99.90
5009;DHT22;2523;51.058;6.922;2023-12-20T07:34:17;6.70;99.90
5009;DHT22;2523;51.058;6.922;2023-12-20T07:36:43;6.70;99.90
5009;DHT22;2523;51.058;6.922;2023-12-20T07:39:08;6.70;99.90
5009;DHT22;2523;51.058;6.922;2023-12-20T07:41:34;6.70;99.90
5009;DHT22;2523;51.058;6.922;2023-12-20T07:43:59;6.70;99.90
5009;DHT22;2523;51.058;6.922;2023-12-20T07:46:25;6.60;99.90
5009;DHT22;2523;51.058;6.922;2023-12-20T07:48:50;6.70;99.90
5009;DHT22;2523;51.058;6.922;2023-12-20T07:51:16;6.70;99.90
5009;DHT22;2523;51.058;6.922;2023-12-20T07:53:42;6.70;99.90
5009;DHT22;2523;51.058;6.922;2023-12-20T07:56:17;6.70;99.90
5009;DHT22;2523;51.058;6.922;2023-12-20T07:58:44;6.70;99.90
5009;DHT22;2523;51.058;6.922;2023-12-20T08:01:10;6.70;99.90
5009;DHT22;2523;51.058;6.922;2023-12-20T08:03:36;6.70;99.90
5009;DHT22;2523;51.058;6.922;2023-12-20T08:06:02;6.70;99.90
5009;DHT22;2523;51.058;6.922;2023-12-20T08:08:27;6.70;99.90
5009;DHT22;2523;51.058;6.922;2023-12-20T08:10:53;6.70;99.90
5009;DHT22;2523;51.058;6.922;2023-12-20T08:13:19;6.70;99.90
5009;DHT22;2523;51.058;6.922;2023-12-20T08:15:50;6.70;99.90
5009;DHT22;2523;51.058;6.922;2023-12-20T08:18:15;6.70;99.90
5009;DHT22;2523;51.058;6.922;2023-12-20T08:20:41;6.70;99.90
5009;DHT22;2523;51.058;6.922;2023-12-20T08:23:06;6.70;99.90
5009;DHT22;2523;51.058;6.922;2023-12-20T08:25:32;6.70;99.90
5009;DHT22;2523;51.058;6.922;2023-12-20T08:27:57;6.70;99.90
5009;DHT22;2523;51.058;6.922;2023-12-20T08:30:23;6.70;99.90
5009;DHT22;2523;51.058;6.922;2023-12-20T08:32:48;6.70;99.90
5009;DHT22;2523;51.058;6.922;2023-12-20T08:35:14;6.70;99.90
5009;DHT22;2523;51.058;6.922;2023-12-20T08:37:39;6.70;99.90
5009;DHT22;2523;51.058;6.922;2023-12-20T08:40:05;6.70;99.90
5009;DHT22;2523;51.058;6.922;2023-12-20T08:42:31;6.70;99.90
5009;DHT22;2523;51.058;6.922;2023-12-20T08:44:57;6.70;99.90
5009;DHT22;2523;51.058;6.922;2023-12-20T08:47:26;6.70;99.90
5009;DHT22;2523;51.058;6.922;2023-12-20T08:49:52;6.70;99.90
5009;DHT22;2523;51.058;6.922;2023-12-20T08:52:22;6.70;99.90
5009;DHT22;2523;51.058;6.922;2023-12-20T08:54:48;6.70;99.90
5009;DHT22;2523;51.058;6.922;2023-12-20T08:57:14;6.70;99.90
5009;DHT22;2523;51.058;6.922;2023-12-20T08:59:39;6.70;99.90
5009;DHT22;2523;51.058;6.922;2023-12-20T09:02:05;6.70;99.90
5009;DHT22;2523;51.058;6.922;2023-12-20T09:04:30;6.70;99.90
5009;DHT22;2523;51.058;6.922;2023-12-20T09:06:56;6.80;99.90
5009;DHT22;2523;51.058;6.922;2023-12-20T09:09:21;6.80;99.90
5009;DHT22;2523;51.058;6.922;2023-12-20T09:11:47;6.80;99.90
5009;DHT22;2523;51.058;6.922;2023-12-20T09:14:15;6.80;99.90
5009;DHT22;2523;51.058;6.922;2023-12-20T09:16:41;6.80;99.90
5009;DHT22;2523;51.058;6.922;2023-12-20T09:19:06;6.80;99.90
5009;DHT22;2523;51.058;6.922;2023-12-20T09:21:32;6.80;99.90
5009;DHT22;2523;51.058;6.922;2023-12-20T09:23:57;6.80;99.90
5009;DHT22;2523;51.058;6.922;2023-12-20T09:26:23;6.80;99.90
5009;DHT22;2523;51.058;6.922;2023-12-20T09:28:48;6.80;99.90
5009;DHT22;2523;51.058;6.922;2023-12-20T09:31:14;6.80;99.90
5009;DHT22;2523;51.058;6.922;2023-12-20T09:33:39;6.80;99.90
5009;DHT22;2523;51.058;6.922;2023-12-20T09:36:05;6.80;99.90
5009;DHT22;2523;51.058;6.922;2023-12-20T09:38:30;6.90;99.90
5009;DHT22;2523;51.058;6.922;2023-12-20T09:40:56;6.80;99.90
5009;DHT22;2523;51.058;6.922;2023-12-20T09:43:24;6.80;99.90
5009;DHT22;2523;51.058;6.922;2023-12-20T09:45:52;6.80;99.90
5009;DHT22;2523;51.058;6.922;2023-12-20T09:48:19;6.80;99.90
5009;DHT22;2523;51.058;6.922;2023-12-20T09:50:46;6.80;99.90
5009;DHT22;2523;51.058;6.922;2023-12-20T09:53:15;6.80;99.90
5009;DHT22;2523;51.058;6.922;2023-12-20T09:55:41;6.90;99.90
5009;DHT22;2523;51.058;6.922;2023-12-20T09:58:07;6.90;99.90
5009;DHT22;2523;51.058;6.922;2023-12-20T10:00:34;6.80;99.90
5009;DHT22;2523;51.058;6.922;2023-12-20T10:03:00;6.80;99.90
5009;DHT22;2523;51.058;6.922;2023-12-20T10:05:32;6.80;99.90
5009;DHT22;2523;51.058;6.922;2023-12-20T10:07:58;6.80;99.90
5009;DHT22;2523;51.058;6.922;2023-12-20T10:10:24;6.90;99.90
5009;DHT22;2523;51.058;6.922;2023-12-20T10:13:11;6.90;99.90
5009;DHT22;2523;51.058;6.922;2023-12-20T10:15:37;6.90;99.90
5009;DHT22;2523;51.058;6.922;2023-12-20T10:18:04;6.90;99.90
5009;DHT22;2523;51.058;6.922;2023-12-20T10:20:30;7.00;99.90
5009;DHT22;2523;51.058;6.922;2023-12-20T10:22:57;7.00;99.90
5009;DHT22;2523;51.058;6.922;2023-12-20T10:25:22;7.00;99.90
5009;DHT22;2523;51.058;6.922;2023-12-20T10:27:49;7.00;99.90
5009;DHT22;2523;51.058;6.922;2023-12-20T10:30:15;7.00;99.90
5009;DHT22;2523;51.058;6.922;2023-12-20T10:32:41;7.00;99.90
5009;DHT22;2523;51.058;6.922;2023-12-20T10:35:08;7.00;99.90
5009;DHT22;2523;51.058;6.922;2023-12-20T10:37:37;7.00;99.90
5009;DHT22;2523;51.058;6.922;2023-12-20T10:40:04;7.00;99.90
5009;DHT22;2523;51.058;6.922;2023-12-20T10:42:31;7.00;99.90
5009;DHT22;2523;51.058;6.922;2023-12-20T10:44:59;7.10;99.90
5009;DHT22;2523;51.058;6.922;2023-12-20T10:47:25;7.10;99.90
5009;DHT22;2523;51.058;6.922;2023-12-20T10:49:53;7.10;99.90
5009;DHT22;2523;51.058;6.922;2023-12-20T10:52:22;7.20;99.90
5009;DHT22;2523;51.058;6.922;2023-12-20T10:54:48;7.20;99.90
5009;DHT22;2523;51.058;6.922;2023-12-20T10:57:15;7.10;99.90
5009;DHT22;2523;51.058;6.922;2023-12-20T10:59:45;7.20;99.90
5009;DHT22;2523;51.058;6.922;2023-12-20T11:02:13;7.10;99.90
5009;DHT22;2523;51.058;6.922;2023-12-20T11:04:50;7.20;99.90
5009;DHT22;2523;51.058;6.922;2023-12-20T11:07:35;7.10;99.90
5009;DHT22;2523;51.058;6.922;2023-12-20T11:10:25;7.10;99.90
5009;DHT22;2523;51.058;6.922;2023-12-20T11:13:08;7.20;99.90
5009;DHT22;2523;51.058;6.922;2023-12-20T11:15:36;7.10;99.90
5009;DHT22;2523;51.058;6.922;2023-12-20T11:18:02;7.10;99.90
5009;DHT22;2523;51.058;6.922;2023-12-20T11:20:40;7.10;99.90
5009;DHT22;2523;51.058;6.922;2023-12-20T11:23:06;7.20;99.90
5009;DHT22;2523;51.058;6.922;2023-12-20T11:25:52;7.20;99.90
5009;DHT22;2523;51.058;6.922;2023-12-20T11:28:21;7.20;99.90
5009;DHT22;2523;51.058;6.922;2023-12-20T11:33:17;7.30;99.90
5009;DHT22;2523;51.058;6.922;2023-12-20T11:35:46;7.20;99.90
5009;DHT22;2523;51.058;6.922;2023-12-20T11:38:13;7.30;99.90
5009;DHT22;2523;51.058;6.922;2023-12-20T11:40:41;7.20;99.90
5009;DHT22;2523;51.058;6.922;2023-12-20T11:43:07;7.20;99.90
5009;DHT22;2523;51.058;6.922;2023-12-20T11:45:33;7.20;99.90
5009;DHT22;2523;51.058;6.922;2023-12-20T11:48:01;7.20;99.90
5009;DHT22;2523;51.058;6.922;2023-12-20T11:50:27;7.20;99.90
5009;DHT22;2523;51.058;6.922;2023-12-20T11:52:54;7.20;99.90
5009;DHT22;2523;51.058;6.922;2023-12-20T11:55:23;7.20;99.90
5009;DHT22;2523;51.058;6.922;2023-12-20T11:57:50;7.20;99.90
5009;DHT22;2523;51.058;6.922;2023-12-20T12:00:16;7.20;99.90
5009;DHT22;2523;51.058;6.922;2023-12-20T12:02:43;7.20;99.90
5009;DHT22;2523;51.058;6.922;2023-12-20T12:05:09;7.30;99.90
5009;DHT22;2523;51.058;6.922;2023-12-20T12:07:35;7.30;99.90
5009;DHT22;2523;51.058;6.922;2023-12-20T12:10:01;7.30;99.90
5009;DHT22;2523;51.058;6.922;2023-12-20T12:12:26;7.30;99.90
5009;DHT22;2523;51.058;6.922;2023-12-20T12:14:53;7.30;99.90
5009;DHT22;2523;51.058;6.922;2023-12-20T12:17:19;7.40;99.90
5009;DHT22;2523;51.058;6.922;2023-12-20T12:19:45;7.30;99.90
5009;DHT22;2523;51.058;6.922;2023-12-20T12:22:12;7.40;99.90
5009;DHT22;2523;51.058;6.922;2023-12-20T12:24:43;7.30;99.90
5009;DHT22;2523;51.058;6.922;2023-12-20T12:27:09;7.30;99.90
5009;DHT22;2523;51.058;6.922;2023-12-20T12:29:36;7.30;99.90
5009;DHT22;2523;51.058;6.922;2023-12-20T12:32:06;7.30;99.90
5009;DHT22;2523;51.058;6.922;2023-12-20T12:34:36;7.30;99.90
5009;DHT22;2523;51.058;6.922;2023-12-20T12:37:03;7.30;99.90
5009;DHT22;2523;51.058;6.922;2023-12-20T12:39:29;7.30;99.90
5009;DHT22;2523;51.058;6.922;2023-12-20T12:41:55;7.30;99.90
5009;DHT22;2523;51.058;6.922;2023-12-20T12:44:21;7.30;99.90
5009;DHT22;2523;51.058;6.922;2023-12-20T12:46:49;7.30;99.90
5009;DHT22;2523;51.058;6.922;2023-12-20T12:49:22;7.30;99.90
5009;DHT22;2523;51.058;6.922;2023-12-20T12:51:47;7.30;99.90
5009;DHT22;2523;51.058;6.922;2023-12-20T12:54:13;7.30;99.90
5009;DHT22;2523;51.058;6.922;2023-12-20T12:56:41;7.30;99.90
5009;DHT22;2523;51.058;6.922;2023-12-20T12:59:06;7.30;99.90
5009;DHT22;2523;51.058;6.922;2023-12-20T13:01:32;7.30;99.90
5009;DHT22;2523;51.058;6.922;2023-12-20T13:03:57;7.30;99.90
5009;DHT22;2523;51.058;6.922;2023-12-20T13:06:23;7.30;99.90
5009;DHT22;2523;51.058;6.922;2023-12-20T13:08:49;7.40;99.90
5009;DHT22;2523;51.058;6.922;2023-12-20T13:11:15;7.40;99.90
5009;DHT22;2523;51.058;6.922;2023-12-20T13:13:40;7.40;99.90
5009;DHT22;2523;51.058;6.922;2023-12-20T13:16:06;7.50;99.90
5009;DHT22;2523;51.058;6.922;2023-12-20T13:18:31;7.50;99.90
5009;DHT22;2523;51.058;6.922;2023-12-20T13:20:57;7.50;99.90
5009;DHT22;2523;51.058;6.922;2023-12-20T13:23:22;7.60;99.90
5009;DHT22;2523;51.058;6.922;2023-12-20T13:25:48;7.60;99.90
5009;DHT22;2523;51.058;6.922;2023-12-20T13:28:14;7.50;99.90
5009;DHT22;2523;51.058;6.922;2023-12-20T13:30:39;7.60;99.90
5009;DHT22;2523;51.058;6.922;2023-12-20T13:33:06;7.60;99.90
5009;DHT22;2523;51.058;6.922;2023-12-20T13:35:32;7.60;99.90
5009;DHT22;2523;51.058;6.922;2023-12-20T13:37:58;7.50;99.90
5009;DHT22;2523;51.058;6.922;2023-12-20T13:40:24;7.50;99.90
5009;DHT22;2523;51.058;6.922;2023-12-20T13:42:50;7.50;99.90
5009;DHT22;2523;51.058;6.922;2023-12-20T13:45:15;7.50;99.90
5009;DHT22;2523;51.058;6.922;2023-12-20T13:47:41;7.50;99.90
5009;DHT22;2523;51.058;6.922;2023-12-20T13:50:07;7.50;99.90
5009;DHT22;2523;51.058;6.922;2023-12-20T13:52:32;7.50;99.90
5009;DHT22;2523;51.058;6.922;2023-12-20T13:54:58;7.50;99.90
5009;DHT22;2523;51.058;6.922;2023-12-20T13:57:23;7.50;99.90
5009;DHT22;2523;51.058;6.922;2023-12-20T13:59:49;7.50;99.90
5009;DHT22;2523;51.058;6.922;2023-12-20T14:02:14;7.50;99.90
5009;DHT22;2523;51.058;6.922;2023-12-20T14:04:41;7.50;99.90
5009;DHT22;2523;51.058;6.922;2023-12-20T14:07:07;7.50;99.90
5009;DHT22;2523;51.058;6.922;2023-12-20T14:09:33;7.50;99.90
5009;DHT22;2523;51.058;6.922;2023-12-20T14:11:59;7.50;99.90
5009;DHT22;2523;51.058;6.922;2023-12-20T14:14:25;7.50;99.90
5009;DHT22;2523;51.058;6.922;2023-12-20T14:16:50;7.60;99.90
5009;DHT22;2523;51.058;6.922;2023-12-20T14:19:16;7.50;99.90
5009;DHT22;2523;51.058;6.922;2023-12-20T14:21:41;7.60;99.90
5009;DHT22;2523;51.058;6.922;2023-12-20T14:24:07;7.50;99.90
5009;DHT22;2523;51.058;6.922;2023-12-20T14:26:33;7.60;99.90
5009;DHT22;2523;51.058;6.922;2023-12-20T14:28:58;7.50;99.90
5009;DHT22;2523;51.058;6.922;2023-12-20T14:31:24;7.50;99.90
5009;DHT22;2523;51.058;6.922;2023-12-20T14:33:50;7.50;99.90
5009;DHT22;2523;51.058;6.922;2023-12-20T14:36:16;7.50;99.90
5009;DHT22;2523;51.058;6.922;2023-12-20T14:38:43;7.60;99.90
5009;DHT22;2523;51.058;6.922;2023-12-20T14:41:09;7.60;99.90
5009;DHT22;2523;51.058;6.922;2023-12-20T14:43:34;7.60;99.90
5009;DHT22;2523;51.058;6.922;2023-12-20T14:46:00;7.70;99.90
5009;DHT22;2523;51.058;6.922;2023-12-20T14:48:26;7.70;99.90
5009;DHT22;2523;51.058;6.922;2023-12-20T14:50:53;7.70;99.90
5009;DHT22;2523;51.058;6.922;2023-12-20T14:53:19;7.70;99.90
5009;DHT22;2523;51.058;6.922;2023-12-20T14:55:46;7.70;99.90
5009;DHT22;2523;51.058;6.922;2023-12-20T14:58:12;7.70;99.90
5009;DHT22;2523;51.058;6.922;2023-12-20T15:00:38;7.70;99.90
5009;DHT22;2523;51.058;6.922;2023-12-20T15:03:04;7.70;99.90
5009;DHT22;2523;51.058;6.922;2023-12-20T15:05:31;7.70;99.90
5009;DHT22;2523;51.058;6.922;2023-12-20T15:07:56;7.70;99.90
5009;DHT22;2523;51.058;6.922;2023-12-20T15:10:22;7.70;99.90
5009;DHT22;2523;51.058;6.922;2023-12-20T15:12:47;7.70;99.90
5009;DHT22;2523;51.058;6.922;2023-12-20T15:15:13;7.70;99.90
5009;DHT22;2523;51.058;6.922;2023-12-20T15:17:39;7.70;99.90
5009;DHT22;2523;51.058;6.922;2023-12-20T15:20:05;7.70;99.90
5009;DHT22;2523;51.058;6.922;2023-12-20T15:22:30;7.70;99.90
5009;DHT22;2523;51.058;6.922;2023-12-20T15:24:59;7.70;99.90
5009;DHT22;2523;51.058;6.922;2023-12-20T15:27:24;7.70;99.90
5009;DHT22;2523;51.058;6.922;2023-12-20T15:29:50;7.70;99.90
5009;DHT22;2523;51.058;6.922;2023-12-20T15:32:17;7.70;99.90
5009;DHT22;2523;51.058;6.922;2023-12-20T15:34:44;7.70;99.90
5009;DHT22;2523;51.058;6.922;2023-12-20T15:37:11;7.70;99.90
5009;DHT22;2523;51.058;6.922;2023-12-20T15:39:37;7.70;99.90
5009;DHT22;2523;51.058;6.922;2023-12-20T15:42:03;7.70;99.90
5009;DHT22;2523;51.058;6.922;2023-12-20T15:44:29;7.70;99.90
5009;DHT22;2523;51.058;6.922;2023-12-20T15:46:54;7.70;99.90
5009;DHT22;2523;51.058;6.922;2023-12-20T15:49:20;7.70;99.90
5009;DHT22;2523;51.058;6.922;2023-12-20T15:51:46;7.60;99.90
5009;DHT22;2523;51.058;6.922;2023-12-20T15:54:12;7.70;99.90
5009;DHT22;2523;51.058;6.922;2023-12-20T15:56:37;7.70;99.90
5009;DHT22;2523;51.058;6.922;2023-12-20T15:59:06;7.70;99.90
5009;DHT22;2523;51.058;6.922;2023-12-20T16:01:31;7.70;99.90
5009;DHT22;2523;51.058;6.922;2023-12-20T16:04:01;7.70;99.90
5009;DHT22;2523;51.058;6.922;2023-12-20T16:06:26;7.70;99.90
5009;DHT22;2523;51.058;6.922;2023-12-20T16:08:53;7.70;99.90
5009;DHT22;2523;51.058;6.922;2023-12-20T16:11:18;7.60;99.90
5009;DHT22;2523;51.058;6.922;2023-12-20T16:13:45;7.70;99.90